createdAt,value
2022-08-07T00:02:35.209Z,1.77
2022-08-07T00:04:05.876Z,1.77
2022-08-07T00:06:33.980Z,1.60
2022-08-07T00:09:16.949Z,2.10
2022-08-07T00:11:56.166Z,1.70
2022-08-07T00:14:30.534Z,1.88
2022-08-07T00:16:59.627Z,2.00
2022-08-07T00:20:00.012Z,1.80
2022-08-07T00:22:24.663Z,1.75
2022-08-07T00:25:01.975Z,1.88
2022-08-07T00:27:29.967Z,2.20
2022-08-07T00:30:26.433Z,2.40
2022-08-07T00:32:54.549Z,1.88
2022-08-07T00:35:23.018Z,1.65
2022-08-07T00:37:50.816Z,1.77
2022-08-07T00:40:39.960Z,1.90
2022-08-07T00:43:09.453Z,2.03
2022-08-07T00:45:38.082Z,1.80
2022-08-07T00:48:08.737Z,1.83
2022-08-07T00:50:51.133Z,2.05
2022-08-07T00:53:20.089Z,1.90
2022-08-07T00:56:03.403Z,2.05
2022-08-07T00:58:32.557Z,1.73
2022-08-07T01:01:00.145Z,2.10
2022-08-07T01:03:56.181Z,2.00
2022-08-07T01:06:15.792Z,1.95
2022-08-07T01:08:52.939Z,2.05
2022-08-07T01:12:04.404Z,1.88
2022-08-07T01:14:09.264Z,2.03
2022-08-07T01:16:39.887Z,1.95
2022-08-07T01:19:10.807Z,1.90
2022-08-07T01:21:47.420Z,2.42
2022-08-07T01:24:21.243Z,1.92
2022-08-07T01:26:52.076Z,2.00
2022-08-07T01:29:20.350Z,2.15
2022-08-07T01:31:49.999Z,2.17
2022-08-07T01:34:18.814Z,2.47
2022-08-07T01:36:57.632Z,2.60
2022-08-07T01:39:41.201Z,2.50
2022-08-07T01:42:38.310Z,2.35
2022-08-07T01:45:04.189Z,2.47
2022-08-07T01:48:18.139Z,2.30
2022-08-07T01:50:22.783Z,2.47
2022-08-07T01:52:58.393Z,2.50
2022-08-07T01:55:30.515Z,2.25
2022-08-07T01:58:27.091Z,2.97
2022-08-07T02:00:52.074Z,2.65
2022-08-07T02:03:31.990Z,2.22
2022-08-07T02:06:31.851Z,2.83
2022-08-07T02:09:01.131Z,2.50
2022-08-07T02:12:03.528Z,2.65
2022-08-07T02:14:35.644Z,2.60
2022-08-07T02:17:04.294Z,2.92
2022-08-07T02:20:04.046Z,2.53
2022-08-07T02:22:21.506Z,2.53
2022-08-07T02:24:55.410Z,2.90
2022-08-07T02:27:23.904Z,2.80
2022-08-07T02:29:54.633Z,2.60
2022-08-07T02:32:27.039Z,2.42
2022-08-07T02:34:58.666Z,2.60
2022-08-07T02:37:28.576Z,2.92
2022-08-07T02:40:29.664Z,2.60
2022-08-07T02:42:51.789Z,3.00
2022-08-07T02:45:57.613Z,2.90
2022-08-07T02:48:10.122Z,2.92
2022-08-07T02:50:41.371Z,2.70
2022-08-07T02:53:11.727Z,2.75
2022-08-07T02:58:29.934Z,2.80
2022-08-07T03:01:03.042Z,2.85
2022-08-07T03:03:49.130Z,2.33
2022-08-07T03:06:32.703Z,2.47
2022-08-07T03:09:03.085Z,2.85
2022-08-07T03:11:32.848Z,3.25
2022-08-07T03:14:06.198Z,3.42
2022-08-07T03:16:33.777Z,3.58
2022-08-07T03:19:01.798Z,3.42
2022-08-07T03:21:33.083Z,3.30
2022-08-07T03:24:19.307Z,3.10
2022-08-07T03:26:58.786Z,3.00
2022-08-07T03:29:39.145Z,3.13
2022-08-07T03:32:15.359Z,3.00
2022-08-07T03:34:47.606Z,3.17
2022-08-07T03:37:32.796Z,3.30
2022-08-07T03:40:15.354Z,2.83
2022-08-07T03:42:43.935Z,2.92
2022-08-07T03:45:11.657Z,3.03
2022-08-07T03:47:45.312Z,2.97
2022-08-07T03:50:23.460Z,3.08
2022-08-07T03:52:51.916Z,3.20
2022-08-07T03:55:19.336Z,3.17
2022-08-07T03:58:35.342Z,3.30
2022-08-07T04:00:36.529Z,3.30
2022-08-07T04:03:06.952Z,3.53
2022-08-07T04:05:40.925Z,3.70
2022-08-07T04:08:16.330Z,3.50
2022-08-07T04:10:54.741Z,3.40
2022-08-07T04:14:09.296Z,3.13
2022-08-07T04:16:31.039Z,3.40
2022-08-07T04:19:04.212Z,3.42
2022-08-07T04:21:40.210Z,3.97
2022-08-07T04:24:30.621Z,3.70
2022-08-07T04:27:03.216Z,4.30
2022-08-07T04:29:57.187Z,4.00
2022-08-07T04:32:34.123Z,3.80
2022-08-07T04:35:05.727Z,3.80
2022-08-07T04:37:40.403Z,4.10
2022-08-07T04:40:21.214Z,4.20
2022-08-07T04:42:51.797Z,4.80
2022-08-07T04:48:17.150Z,4.40
2022-08-07T04:51:10.922Z,4.57
2022-08-07T04:54:05.448Z,4.97
2022-08-07T04:58:13.692Z,4.68
2022-08-07T05:00:12.491Z,5.28
2022-08-07T05:02:33.788Z,4.95
2022-08-07T05:05:12.038Z,4.65
2022-08-07T05:07:58.836Z,4.55
2022-08-07T05:10:32.152Z,5.10
2022-08-07T05:13:10.092Z,6.40
2022-08-07T05:15:57.970Z,5.45
2022-08-07T05:18:29.955Z,5.22
2022-08-07T05:21:01.015Z,5.90
2022-08-07T05:23:35.583Z,6.97
2022-08-07T05:26:13.400Z,5.78
2022-08-07T05:28:48.514Z,6.70
2022-08-07T05:31:18.368Z,8.63
2022-08-07T05:34:01.051Z,7.95
2022-08-07T05:36:35.476Z,8.13
2022-08-07T05:40:06.598Z,7.80
2022-08-07T05:42:00.311Z,7.70
2022-08-07T05:44:30.801Z,6.68
2022-08-07T05:47:00.392Z,6.30
2022-08-07T05:49:40.393Z,6.55
2022-08-07T05:52:11.409Z,6.63
2022-08-07T05:54:53.513Z,6.50
2022-08-07T05:57:29.893Z,5.88
2022-08-07T05:59:59.478Z,5.40
2022-08-07T06:02:30.661Z,5.40
2022-08-07T06:05:00.473Z,4.97
2022-08-07T06:08:05.349Z,4.90
2022-08-07T06:10:15.755Z,4.47
2022-08-07T06:12:43.102Z,4.72
2022-08-07T06:15:15.278Z,4.50
2022-08-07T06:17:50.615Z,4.40
2022-08-07T06:20:32.059Z,4.80
2022-08-07T06:23:46.048Z,4.70
2022-08-07T06:25:59.106Z,4.50
2022-08-07T06:28:29.440Z,4.18
2022-08-07T06:30:58.198Z,4.67
2022-08-07T06:33:26.167Z,4.07
2022-08-07T06:36:06.714Z,4.53
2022-08-07T06:38:58.875Z,4.10
2022-08-07T06:42:02.896Z,4.88
2022-08-07T06:44:33.871Z,4.78
2022-08-07T06:47:12.449Z,3.92
2022-08-07T06:52:31.410Z,3.90
2022-08-07T06:55:32.081Z,3.28
2022-08-07T06:57:56.926Z,2.97
2022-08-07T07:00:25.358Z,2.80
2022-08-07T07:03:00.883Z,3.28
2022-08-07T07:08:29.880Z,2.70
2022-08-07T07:11:00.910Z,2.00
2022-08-07T07:13:55.424Z,2.80
2022-08-07T07:16:27.574Z,2.40
2022-08-07T07:19:54.478Z,2.60
2022-08-07T07:22:12.127Z,2.65
2022-08-07T07:24:56.654Z,2.67
2022-08-07T07:27:35.497Z,2.20
2022-08-07T07:30:32.458Z,2.78
2022-08-07T07:33:05.777Z,2.67
2022-08-07T07:35:43.748Z,2.30
2022-08-07T07:38:25.932Z,2.47
2022-08-07T07:41:01.815Z,2.80
2022-08-07T07:43:47.882Z,2.92
2022-08-07T07:46:37.827Z,2.75
2022-08-07T07:50:31.435Z,2.45
2022-08-07T07:51:57.640Z,3.28
2022-08-07T07:54:27.290Z,2.67
2022-08-07T07:56:57.474Z,2.83
2022-08-07T07:59:52.150Z,2.65
2022-08-07T08:02:34.074Z,2.72
2022-08-07T08:05:14.435Z,2.42
2022-08-07T08:07:59.631Z,2.45
2022-08-07T08:10:35.583Z,2.22
2022-08-07T08:13:10.531Z,2.80
2022-08-07T08:15:57.430Z,2.55
2022-08-07T08:18:28.163Z,2.58
2022-08-07T08:20:56.464Z,2.38
2022-08-07T08:23:43.623Z,2.42
2022-08-07T08:26:33.667Z,2.30
2022-08-07T08:29:01.846Z,2.10
2022-08-07T08:31:58.809Z,2.50
2022-08-07T08:34:28.958Z,2.55
2022-08-07T08:36:58.418Z,2.58
2022-08-07T08:39:38.920Z,2.80
2022-08-07T08:42:11.000Z,2.42
2022-08-07T08:44:58.967Z,2.50
2022-08-07T08:47:52.387Z,2.10
2022-08-07T08:50:34.996Z,2.55
2022-08-07T08:53:13.517Z,2.90
2022-08-07T08:55:54.464Z,2.50
2022-08-07T08:58:30.526Z,2.38
2022-08-07T09:01:15.023Z,2.25
2022-08-07T09:04:25.927Z,2.15
2022-08-07T09:07:02.397Z,2.20
2022-08-07T09:09:44.606Z,2.13
2022-08-07T09:12:30.955Z,2.50
2022-08-07T09:14:59.828Z,2.30
2022-08-07T09:17:27.469Z,2.40
2022-08-07T09:20:37.786Z,2.25
2022-08-07T09:24:32.368Z,2.30
2022-08-07T09:26:23.860Z,2.03
2022-08-07T09:30:03.758Z,2.38
2022-08-07T09:31:57.385Z,2.30
2022-08-07T09:34:32.372Z,2.17
2022-08-07T09:37:12.543Z,2.15
2022-08-07T09:39:53.800Z,2.13
2022-08-07T09:42:33.715Z,2.20
2022-08-07T09:46:29.101Z,2.03
2022-08-07T09:48:14.618Z,2.63
2022-08-07T09:50:51.392Z,2.70
2022-08-07T09:53:22.560Z,2.00
2022-08-07T09:56:12.740Z,1.88
2022-08-07T10:01:52.122Z,2.03
2022-08-07T10:04:33.514Z,2.22
2022-08-07T10:07:24.392Z,2.10
2022-08-07T10:10:00.985Z,1.77
2022-08-07T10:12:39.595Z,1.90
2022-08-07T10:15:45.396Z,1.73
2022-08-07T10:18:27.326Z,1.63
2022-08-07T10:24:05.581Z,1.50
2022-08-07T10:26:33.258Z,1.85
2022-08-07T10:29:22.024Z,1.48
2022-08-07T10:32:01.502Z,1.70
2022-08-07T10:34:45.163Z,1.52
2022-08-07T10:37:26.510Z,1.50
2022-08-07T10:40:13.269Z,1.70
2022-08-07T10:42:41.251Z,2.00
2022-08-07T10:45:45.331Z,1.77
2022-08-07T10:48:08.249Z,1.83
2022-08-07T10:50:57.737Z,1.87
2022-08-07T10:53:44.999Z,1.60
2022-08-07T10:56:20.998Z,2.20
2022-08-07T10:59:07.830Z,2.28
2022-08-07T11:02:04.858Z,2.20
2022-08-07T11:04:54.600Z,2.05
2022-08-07T11:07:58.698Z,2.20
2022-08-07T11:10:38.703Z,2.03
2022-08-07T11:14:41.772Z,2.20
2022-08-07T11:16:07.243Z,2.10
2022-08-07T11:18:50.918Z,2.75
2022-08-07T11:21:33.979Z,2.50
2022-08-07T11:24:19.022Z,2.60
2022-08-07T11:27:13.482Z,3.22
2022-08-07T11:30:10.165Z,2.30
2022-08-07T11:32:52.843Z,2.17
2022-08-07T11:35:29.878Z,2.20
2022-08-07T11:37:58.057Z,2.40
2022-08-07T11:40:56.676Z,2.10
2022-08-07T11:43:29.697Z,2.00
2022-08-07T11:46:11.754Z,2.10
2022-08-07T11:49:27.660Z,1.60
2022-08-07T11:51:49.090Z,2.00
2022-08-07T11:54:25.385Z,1.83
2022-08-07T11:57:06.721Z,2.00
2022-08-07T12:00:12.325Z,1.77
2022-08-07T12:02:52.609Z,1.90
2022-08-07T12:05:58.368Z,1.70
2022-08-07T12:08:42.636Z,1.80
2022-08-07T12:11:21.767Z,1.95
2022-08-07T12:14:08.524Z,1.80
2022-08-07T12:16:41.880Z,1.90
2022-08-07T12:19:21.612Z,1.83
2022-08-07T12:22:38.622Z,1.60
2022-08-07T12:26:03.448Z,1.88
2022-08-07T12:28:11.133Z,2.40
2022-08-07T12:30:46.701Z,1.70
2022-08-07T12:33:23.454Z,1.75
2022-08-07T12:35:58.171Z,1.77
2022-08-07T12:40:58.188Z,1.63
2022-08-07T12:44:02.943Z,1.40
2022-08-07T12:46:26.256Z,2.00
2022-08-07T12:48:59.950Z,1.60
2022-08-07T12:52:12.265Z,1.60
2022-08-07T12:55:01.513Z,1.60
2022-08-07T12:57:50.899Z,1.52
2022-08-07T13:00:32.538Z,1.30
2022-08-07T13:03:26.874Z,1.27
2022-08-07T13:06:17.092Z,2.20
2022-08-07T13:08:59.891Z,1.60
2022-08-07T13:12:02.077Z,1.55
2022-08-07T13:14:37.395Z,1.52
2022-08-07T13:17:40.748Z,1.52
2022-08-07T13:20:12.791Z,1.75
2022-08-07T13:22:42.832Z,1.65
2022-08-07T13:25:50.794Z,1.83
2022-08-07T13:28:25.097Z,2.15
2022-08-07T13:31:18.728Z,1.98
2022-08-07T13:34:34.222Z,1.88
2022-08-07T13:37:01.882Z,2.00
2022-08-07T13:40:33.168Z,2.33
2022-08-07T13:42:30.974Z,2.28
2022-08-07T13:45:20.592Z,1.97
2022-08-07T13:48:08.420Z,2.05
2022-08-07T13:51:00.045Z,2.08
2022-08-07T13:53:23.913Z,1.90
2022-08-07T13:55:54.760Z,1.90
2022-08-07T13:58:56.135Z,1.83
2022-08-07T14:01:25.221Z,1.80
2022-08-07T14:04:06.857Z,1.55
2022-08-07T14:06:38.564Z,1.48
2022-08-07T14:09:06.927Z,1.63
2022-08-07T14:11:53.183Z,1.77
2022-08-07T14:14:31.323Z,1.40
2022-08-07T14:17:32.066Z,1.70
2022-08-07T14:20:40.343Z,1.70
2022-08-07T14:22:48.465Z,1.50
2022-08-07T14:25:17.022Z,1.42
2022-08-07T14:28:12.746Z,1.50
2022-08-07T14:30:40.737Z,1.50
2022-08-07T14:33:08.793Z,1.55
2022-08-07T14:35:45.716Z,1.40
2022-08-07T14:38:26.523Z,1.55
2022-08-07T14:41:04.029Z,1.38
2022-08-07T14:43:57.212Z,1.30
2022-08-07T14:46:31.458Z,1.60
2022-08-07T14:49:17.437Z,1.38
2022-08-07T14:52:05.110Z,1.30
2022-08-07T14:54:41.688Z,1.45
2022-08-07T14:57:18.833Z,1.38
2022-08-07T15:02:35.126Z,1.40
2022-08-07T15:05:04.839Z,1.60
2022-08-07T15:07:52.144Z,1.35
2022-08-07T15:13:17.566Z,1.42
2022-08-07T15:18:41.741Z,1.58
2022-08-07T15:21:58.884Z,1.65
2022-08-07T15:25:14.053Z,1.35
2022-08-07T15:27:06.909Z,1.50
2022-08-07T15:30:08.969Z,1.67
2022-08-07T15:32:39.537Z,1.70
2022-08-07T15:38:17.261Z,1.60
2022-08-07T15:43:56.441Z,1.50
2022-08-07T15:46:32.348Z,1.50
2022-08-07T15:49:12.798Z,1.40
2022-08-07T15:54:34.091Z,1.58
2022-08-07T15:57:02.856Z,1.35
2022-08-07T15:59:39.762Z,1.50
2022-08-07T16:02:15.175Z,1.40
2022-08-07T16:04:44.206Z,1.60
2022-08-07T16:08:30.310Z,1.60
2022-08-07T16:10:14.937Z,1.80
2022-08-07T16:12:42.548Z,1.50
2022-08-07T16:15:55.344Z,1.60
2022-08-07T16:22:01.210Z,1.67
2022-08-07T16:24:34.563Z,1.60
2022-08-07T16:27:19.752Z,1.70
2022-08-07T16:30:11.593Z,1.73
2022-08-07T16:32:54.943Z,1.52
2022-08-07T16:35:51.595Z,2.15
2022-08-07T16:39:00.242Z,1.35
2022-08-07T16:41:24.458Z,1.90
2022-08-07T16:44:04.127Z,1.90
2022-08-07T16:47:07.646Z,1.70
2022-08-07T16:50:29.091Z,1.90
2022-08-07T16:52:57.561Z,1.83
2022-08-07T16:55:43.705Z,1.73
2022-08-07T16:58:15.817Z,2.15
2022-08-07T17:00:50.768Z,1.75
2022-08-07T17:03:19.361Z,1.92
2022-08-07T17:06:29.595Z,1.80
2022-08-07T17:09:13.900Z,1.77
2022-08-07T17:12:04.279Z,1.98
2022-08-07T17:14:39.610Z,1.98
2022-08-07T17:17:21.613Z,1.92
2022-08-07T17:20:01.756Z,1.80
2022-08-07T17:22:37.744Z,2.08
2022-08-07T17:25:45.741Z,1.88
2022-08-07T17:28:19.403Z,1.88
2022-08-07T17:31:16.579Z,2.30
2022-08-07T17:34:15.473Z,1.85
2022-08-07T17:36:58.360Z,2.33
2022-08-07T17:39:57.676Z,2.47
2022-08-07T17:42:59.472Z,1.90
2022-08-07T17:45:35.282Z,2.45
2022-08-07T17:48:11.189Z,2.45
2022-08-07T17:50:52.505Z,2.50
2022-08-07T17:54:01.419Z,2.40
2022-08-07T17:56:31.833Z,2.38
2022-08-07T17:59:02.093Z,2.13
2022-08-07T18:01:46.274Z,2.05
2022-08-07T18:04:34.556Z,2.53
2022-08-07T18:07:24.299Z,2.22
2022-08-07T18:10:07.133Z,2.53
2022-08-07T18:12:53.978Z,2.25
2022-08-07T18:15:24.412Z,2.42
2022-08-07T18:18:44.677Z,2.45
2022-08-07T18:21:37.383Z,2.40
2022-08-07T18:23:56.086Z,2.83
2022-08-07T18:26:31.797Z,4.22
2022-08-07T18:29:05.232Z,2.40
2022-08-07T18:32:11.307Z,2.50
2022-08-07T18:35:08.104Z,2.30
2022-08-07T18:38:58.568Z,2.20
2022-08-07T18:40:43.912Z,2.10
2022-08-07T18:43:49.336Z,2.38
2022-08-07T18:46:25.346Z,2.50
2022-08-07T18:50:30.206Z,2.55
2022-08-07T18:52:38.064Z,2.50
2022-08-07T18:55:41.756Z,2.30
2022-08-07T18:58:14.340Z,2.50
2022-08-07T19:00:42.851Z,2.05
2022-08-07T19:03:35.438Z,2.55
2022-08-07T19:06:09.928Z,2.33
2022-08-07T19:08:55.782Z,2.65
2022-08-07T19:11:38.339Z,2.42
2022-08-07T19:14:39.406Z,2.75
2022-08-07T19:17:52.439Z,3.17
2022-08-07T19:20:29.136Z,2.53
2022-08-07T19:23:03.146Z,2.40
2022-08-07T19:26:23.777Z,2.40
2022-08-07T19:30:56.494Z,2.63
2022-08-07T19:31:41.736Z,2.70
2022-08-07T19:34:13.849Z,2.72
2022-08-07T19:37:16.989Z,2.92
2022-08-07T19:39:57.700Z,3.08
2022-08-07T19:42:30.421Z,3.10
2022-08-07T19:45:00.700Z,3.38
2022-08-07T19:47:39.263Z,3.38
2022-08-07T19:50:43.149Z,3.00
2022-08-07T19:52:58.746Z,3.20
2022-08-07T19:55:56.623Z,3.50
2022-08-07T19:58:16.771Z,3.33
2022-08-07T20:00:55.407Z,3.67
2022-08-07T20:03:34.720Z,3.47
2022-08-07T20:06:04.823Z,3.28
2022-08-07T20:08:38.384Z,3.45
2022-08-07T20:11:10.039Z,4.00
2022-08-07T20:13:46.960Z,4.82
2022-08-07T20:16:35.231Z,3.17
2022-08-07T20:19:10.457Z,3.50
2022-08-07T20:21:47.664Z,3.83
2022-08-07T20:24:20.047Z,3.33
2022-08-07T20:26:52.274Z,4.10
2022-08-07T20:29:47.723Z,3.70
2022-08-07T20:32:23.121Z,3.35
2022-08-07T20:34:54.512Z,3.55
2022-08-07T20:37:25.950Z,3.15
2022-08-07T20:40:02.080Z,3.40
2022-08-07T20:42:33.076Z,2.85
2022-08-07T20:45:01.360Z,3.42
2022-08-07T20:47:56.014Z,3.30
2022-08-07T20:50:21.016Z,3.63
2022-08-07T20:52:51.811Z,3.35
2022-08-07T20:55:23.766Z,3.17
2022-08-07T20:58:02.466Z,3.38
2022-08-07T21:00:42.927Z,3.83
2022-08-07T21:03:14.760Z,3.10
2022-08-07T21:05:54.679Z,3.50
2022-08-07T21:08:36.615Z,3.97
2022-08-07T21:11:07.402Z,3.90
2022-08-07T21:13:43.774Z,3.37
2022-08-07T21:16:27.326Z,3.40
2022-08-07T21:18:58.264Z,4.07
2022-08-07T21:21:27.278Z,3.60
2022-08-07T21:24:28.337Z,4.13
2022-08-07T21:27:07.175Z,4.72
2022-08-07T21:29:52.785Z,4.05
2022-08-07T21:32:50.119Z,4.07
2022-08-07T21:36:05.553Z,3.55
2022-08-07T21:39:02.590Z,4.10
2022-08-07T21:42:00.506Z,4.18
2022-08-07T21:44:37.696Z,3.70
2022-08-07T21:47:28.642Z,4.10
2022-08-07T21:50:14.721Z,3.78
2022-08-07T21:53:08.428Z,3.70
2022-08-07T21:55:54.972Z,4.03
2022-08-07T21:58:45.876Z,4.40
2022-08-07T22:01:20.516Z,4.68
2022-08-07T22:04:17.730Z,3.65
2022-08-07T22:06:53.722Z,3.72
2022-08-07T22:09:25.820Z,4.00
2022-08-07T22:12:07.035Z,4.10
2022-08-07T22:15:00.094Z,4.43
2022-08-07T22:17:36.151Z,3.60
2022-08-07T22:20:10.719Z,3.83
2022-08-07T22:22:53.428Z,4.10
2022-08-07T22:25:51.153Z,3.97
2022-08-07T22:28:48.277Z,4.20
2022-08-07T22:31:20.076Z,3.65
2022-08-07T22:34:13.077Z,3.53
2022-08-07T22:36:56.801Z,3.85
2022-08-07T22:39:52.511Z,3.92
2022-08-07T22:42:25.839Z,3.58
2022-08-07T22:44:58.252Z,3.75
2022-08-07T22:47:45.604Z,3.70
2022-08-07T22:50:29.061Z,3.38
2022-08-07T22:53:19.789Z,3.97
2022-08-07T22:56:08.560Z,3.90
2022-08-07T22:58:54.867Z,4.68
2022-08-07T23:01:22.146Z,4.30
2022-08-07T23:04:00.208Z,5.03
2022-08-07T23:06:40.393Z,4.80
2022-08-07T23:10:04.524Z,5.28
2022-08-07T23:12:32.844Z,4.28
2022-08-07T23:15:03.547Z,4.05
2022-08-07T23:17:41.781Z,4.25
2022-08-07T23:20:51.437Z,4.93
2022-08-07T23:24:05.484Z,4.93
2022-08-07T23:26:56.277Z,5.05
2022-08-07T23:29:43.355Z,5.10
2022-08-07T23:34:20.231Z,5.00
2022-08-07T23:35:23.974Z,5.22
2022-08-07T23:38:06.140Z,5.25
2022-08-07T23:40:35.963Z,5.13
2022-08-07T23:43:16.788Z,5.78
2022-08-07T23:46:03.286Z,5.10
2022-08-07T23:48:49.638Z,5.47
2022-08-07T23:53:17.040Z,5.43
2022-08-07T23:54:11.583Z,4.95
2022-08-07T23:56:53.908Z,5.07
